Time;durP1;ratioP1;P1;durP2;ratioP2;P2;SDS_P1;SDS_P2;PMS_P1;PMS_P2;Temp;Humidity;BMP_temperature;BMP_pressure;BME280_temperature;BME280_humidity;BME280_pressure;Samples;Min_cycle;Max_cycle;Signal;HPM_P1;HPM_P2
2022/12/03 00:01:24;;;;;;;;;46.33;42.00;;;;;4.96;100.00;101074.25;6350090;22;45403;-83
2022/12/03 00:03:52;;;;;;;;;54.67;45.00;;;;;4.92;100.00;101061.78;6350888;22;45352;-82
2022/12/03 00:06:18;;;;;;;;;39.00;37.33;;;;;4.91;100.00;101074.06;6352250;22;45173;-82
2022/12/03 00:08:44;;;;;;;;;57.00;43.67;;;;;4.86;100.00;101049.22;6322817;22;45276;-82
2022/12/03 00:11:09;;;;;;;;;43.33;38.33;;;;;4.91;100.00;101067.84;6323522;22;45353;-82
2022/12/03 00:13:35;;;;;;;;;49.00;42.00;;;;;4.85;100.00;101042.19;6323797;22;45612;-82
2022/12/03 00:16:04;;;;;;;;;52.00;42.67;;;;;4.89;100.00;101046.75;6349186;22;45518;-82
2022/12/03 00:18:29;;;;;;;;;59.00;42.67;;;;;4.94;100.00;101044.28;6323035;22;45385;-81
2022/12/03 00:20:55;;;;;;;;;47.67;41.33;;;;;4.97;100.00;101049.69;6350641;22;45293;-81
2022/12/03 00:23:21;;;;;;;;;25.00;20.00;;;;;4.92;100.00;101033.66;6322446;22;45180;-81
2022/12/03 00:25:47;;;;;;;;;38.33;34.00;;;;;4.95;100.00;101036.44;6322509;22;47095;-82
2022/12/03 00:28:12;;;;;;;;;49.00;38.67;;;;;4.95;100.00;101049.63;6323727;22;45287;-82
2022/12/03 00:30:38;;;;;;;;;52.67;43.00;;;;;4.95;100.00;101041.72;6323418;22;45266;-82
2022/12/03 00:33:04;;;;;;;;;51.33;41.67;;;;;4.95;100.00;101025.91;6324034;22;45552;-82
2022/12/03 00:35:29;;;;;;;;;50.33;42.33;;;;;4.93;100.00;101032.84;6352844;22;45337;-82
2022/12/03 00:38:00;;;;;;;;;50.33;43.00;;;;;4.98;100.00;101023.38;6354029;22;45389;-82
2022/12/03 00:40:25;;;;;;;;;56.67;46.00;;;;;4.96;100.00;101022.41;6326668;22;44727;-81
2022/12/03 00:42:51;;;;;;;;;45.67;37.33;;;;;5.08;100.00;101027.31;6352086;22;45135;-81
2022/12/03 00:45:17;;;;;;;;;56.67;42.67;;;;;5.04;100.00;101011.31;6322122;22;47115;-81
2022/12/03 00:47:42;;;;;;;;;58.67;47.33;;;;;5.04;100.00;101000.75;6322947;22;45749;-81
2022/12/03 00:50:10;;;;;;;;;43.67;40.00;;;;;5.09;100.00;101004.47;6352216;22;45385;-82
2022/12/03 00:52:35;;;;;;;;;43.67;34.67;;;;;5.14;100.00;101013.47;6323485;22;45489;-82
2022/12/03 00:55:01;;;;;;;;;52.33;40.67;;;;;5.03;100.00;101004.22;6320571;22;45460;-82
2022/12/03 00:57:27;;;;;;;;;51.00;41.33;;;;;5.04;100.00;101021.84;6321542;22;45473;-82
2022/12/03 00:59:53;;;;;;;;;45.00;36.00;;;;;5.01;100.00;101023.53;6320947;22;45345;-81
2022/12/03 01:02:18;;;;;;;;;42.67;39.33;;;;;4.98;100.00;101033.91;6321947;22;45377;-81
2022/12/03 01:04:44;;;;;;;;;49.33;41.00;;;;;4.99;100.00;101022.56;6349807;22;45380;-81
2022/12/03 01:10:32;;;;;;;;;47.33;39.00;;;;;5.05;100.00;101026.25;6351013;22;45460;-82
2022/12/03 01:12:57;;;;;;;;;48.33;38.00;;;;;5.01;100.00;101015.63;6322733;22;45766;-81
2022/12/03 01:15:23;;;;;;;;;49.67;41.33;;;;;5.06;100.00;101009.63;6348273;22;45825;-81
2022/12/03 01:17:48;;;;;;;;;42.00;37.33;;;;;5.04;100.00;101016.56;6322819;22;45070;-81
2022/12/03 01:20:14;;;;;;;;;39.67;38.67;;;;;5.05;100.00;101019.28;6322366;22;45388;-82
2022/12/03 01:22:40;;;;;;;;;51.33;40.67;;;;;5.06;100.00;101012.25;6323361;22;44804;-81
2022/12/03 01:25:05;;;;;;;;;46.67;40.67;;;;;5.13;100.00;101015.22;6322562;22;45460;-82
2022/12/03 01:27:31;;;;;;;;;45.00;39.33;;;;;5.17;100.00;101024.13;6321764;22;45331;-81
2022/12/03 01:30:00;;;;;;;;;55.67;41.67;;;;;5.16;100.00;101019.72;6325553;22;44640;-82
2022/12/03 01:39:09;;;;;;;;;50.33;44.00;;;;;5.06;100.00;101015.78;6351537;22;45345;-82
2022/12/03 01:41:37;;;;;;;;;62.00;46.67;;;;;5.06;100.00;101010.53;6324421;22;45383;-82
2022/12/03 01:44:14;;;;;;;;;58.50;49.00;;;;;5.08;100.00;101022.03;6324206;22;45439;-81
2022/12/03 01:46:41;;;;;;;;;60.33;45.33;;;;;5.07;100.00;101014.97;6351144;22;45941;-82
2022/12/03 01:49:15;;;;;;;;;55.67;45.00;;;;;5.04;100.00;101006.03;6350958;22;45381;-81
2022/12/03 01:51:41;;;;;;;;;50.00;42.67;;;;;5.01;100.00;101023.53;6351057;22;45282;-83
2022/12/03 01:54:20;;;;;;;;;54.33;44.00;;;;;5.03;100.00;101031.50;6323722;22;44826;-82
2022/12/03 01:56:46;;;;;;;;;50.33;42.33;;;;;4.98;100.00;101015.47;6352621;22;46465;-83
2022/12/03 01:59:18;;;;;;;;;49.67;42.33;;;;;5.05;100.00;101029.81;6324014;22;45341;-81
2022/12/03 02:01:44;;;;;;;;;51.67;42.00;;;;;5.04;100.00;101024.47;6323074;22;45474;-82
2022/12/03 02:04:13;;;;;;;;;50.67;39.33;;;;;5.08;100.00;101022.03;6350768;22;45370;-82
2022/12/03 02:06:41;;;;;;;;;51.33;43.00;;;;;5.16;100.00;101038.16;6320686;22;47232;-81
2022/12/03 02:09:10;;;;;;;;;51.67;42.67;;;;;5.12;100.00;101023.94;6321191;22;45380;-81
2022/12/03 02:11:39;;;;;;;;;45.67;39.00;;;;;5.08;100.00;101022.03;6323619;22;45338;-81
2022/12/03 02:14:11;;;;;;;;;59.33;45.00;;;;;5.06;100.00;101014.91;6324798;22;45351;-82
2022/12/03 02:16:39;;;;;;;;;46.00;42.00;;;;;5.12;100.00;101023.06;6349902;22;45421;-83
2022/12/03 02:19:39;;;;;;;;;47.67;40.00;;;;;5.14;100.00;101017.00;6322910;22;45391;-82
2022/12/03 02:22:20;;;;;;;;;54.33;42.00;;;;;5.15;100.00;101028.44;6323336;22;44763;-81
2022/12/03 02:24:58;;;;;;;;;58.00;43.67;;;;;5.12;100.00;101020.41;6351497;22;45392;-83
2022/12/03 02:27:25;;;;;;;;;46.00;36.67;;;;;5.13;100.00;101023.13;6350130;22;45667;-82
2022/12/03 02:29:55;;;;;;;;;48.67;38.67;;;;;5.16;100.00;101019.72;6321014;22;45357;-82
2022/12/03 02:32:22;;;;;;;;;59.67;43.00;;;;;5.10;100.00;101009.81;6322113;22;45348;-82
2022/12/03 02:34:49;;;;;;;;;57.67;43.00;;;;;5.10;100.00;101017.72;6350946;22;45411;-81
2022/12/03 02:37:31;;;;;;;;;52.00;40.67;;;;;5.11;100.00;101014.25;6321389;22;45427;-83
2022/12/03 02:40:01;;;;;;;;;42.67;38.33;;;;;5.11;100.00;101008.97;6321474;22;45420;-83
2022/12/03 02:42:34;;;;;;;;;56.00;44.33;;;;;5.08;100.00;101010.59;6322375;22;45277;-82
2022/12/03 02:45:17;;;;;;;;;51.67;41.67;;;;;5.10;100.00;101003.66;6352584;22;44703;-83
2022/12/03 02:47:53;;;;;;;;;48.67;40.33;;;;;5.08;100.00;101013.22;6322583;22;47227;-81
2022/12/03 02:50:27;;;;;;;;;49.00;42.00;;;;;5.05;100.00;101021.00;6350507;22;45447;-81
2022/12/03 02:52:56;;;;;;;;;61.33;46.00;;;;;4.93;100.00;100987.16;6350188;22;45404;-81
2022/12/03 02:55:23;;;;;;;;;47.67;43.67;;;;;5.00;100.00;100999.72;6348997;22;45686;-82
2022/12/03 02:57:51;;;;;;;;;54.00;39.33;;;;;5.05;100.00;100998.19;6348254;22;45333;-81
2022/12/03 03:00:26;;;;;;;;;45.67;36.33;;;;;5.13;100.00;101006.38;6321020;22;45422;-82
2022/12/03 03:02:52;;;;;;;;;53.33;41.33;;;;;5.16;100.00;101006.53;6319579;22;45439;-83
2022/12/03 03:05:22;;;;;;;;;46.00;40.00;;;;;5.18;100.00;100994.31;6320190;22;45357;-83
2022/12/03 03:07:50;;;;;;;;;48.33;40.33;;;;;5.15;100.00;100983.63;6348890;22;45238;-82
2022/12/03 03:10:20;;;;;;;;;58.33;45.33;;;;;5.16;100.00;100972.25;6351319;22;45386;-82
2022/12/03 03:12:45;;;;;;;;;47.00;38.00;;;;;5.19;100.00;100986.47;6322951;22;45403;-82
2022/12/03 03:15:14;;;;;;;;;47.33;42.00;;;;;5.10;100.00;100985.19;6352035;22;45250;-83
2022/12/03 03:17:41;;;;;;;;;45.33;39.33;;;;;5.06;100.00;100994.69;6319043;22;46785;-82
2022/12/03 03:20:10;;;;;;;;;34.67;34.67;;;;;5.00;100.00;100999.72;6319305;22;45414;-81
2022/12/03 03:23:05;;;;;;;;;40.67;37.33;;;;;4.94;100.00;101003.00;6319668;22;45304;-82
2022/12/03 03:25:30;;;;;;;;;48.33;40.33;;;;;4.84;100.00;101000.84;6319399;22;45356;-83
2022/12/03 03:27:56;;;;;;;;;33.00;24.00;;;;;4.77;100.00;100991.78;6317815;22;45204;-83
2022/12/03 03:30:25;;;;;;;;;57.67;44.67;;;;;4.87;100.00;101003.59;6316693;22;45304;-82
2022/12/03 03:32:50;;;;;;;;;49.67;42.67;;;;;4.90;100.00;101006.34;6316078;22;45337;-82
2022/12/03 03:35:16;;;;;;;;;54.33;43.00;;;;;4.94;100.00;101000.38;6318809;22;45378;-82
2022/12/03 03:37:42;;;;;;;;;38.33;30.67;;;;;4.99;100.00;100997.94;6316633;22;47844;-81
2022/12/03 03:40:11;;;;;;;;;43.00;39.33;;;;;4.94;100.00;100994.22;6318209;22;45554;-82
2022/12/03 03:42:37;;;;;;;;;37.67;30.33;;;;;5.02;100.00;101005.97;6319548;22;45316;-82
2022/12/03 03:45:09;;;;;;;;;50.67;39.67;;;;;4.94;100.00;100989.84;6315975;22;45487;-81
2022/12/03 03:48:11;;;;;;;;;42.67;38.67;;;;;5.01;100.00;101006.81;6316278;22;46279;-82
2022/12/03 03:50:36;;;;;;;;;51.67;41.67;;;;;4.99;100.00;101004.09;6318079;22;45284;-82
2022/12/03 03:53:03;;;;;;;;;45.00;38.33;;;;;4.94;100.00;100983.66;6317775;22;45284;-81
2022/12/03 03:55:30;;;;;;;;;44.67;40.67;;;;;4.95;100.00;100983.75;6315774;22;45392;-81
2022/12/03 03:57:57;;;;;;;;;45.00;41.33;;;;;4.95;100.00;100986.38;6317715;22;45975;-82
2022/12/03 04:00:24;;;;;;;;;44.33;40.00;;;;;5.04;100.00;100995.50;6316001;22;45327;-82
2022/12/03 04:02:53;;;;;;;;;44.67;36.67;;;;;5.02;100.00;100990.16;6315694;22;45600;-83
2022/12/03 04:05:23;;;;;;;;;54.00;43.33;;;;;5.00;100.00;100995.34;6315865;22;45376;-82
2022/12/03 04:07:49;;;;;;;;;49.00;39.00;;;;;4.91;100.00;100987.09;6315203;22;47221;-82
2022/12/03 04:13:00;;;;;;;;;49.67;40.67;;;;;5.01;100.00;101018.25;6318258;22;45680;-82
2022/12/03 04:15:25;;;;;;;;;46.00;42.00;;;;;4.97;100.00;101013.69;6316070;22;45295;-82
2022/12/03 04:20:43;;;;;;;;;50.00;41.00;;;;;4.86;100.00;100993.88;6349387;22;45327;-81
2022/12/03 04:23:08;;;;;;;;;47.67;39.33;;;;;4.92;100.00;100991.50;6349257;22;44743;-82
2022/12/03 04:36:30;;;;;;;;;42.00;36.00;;;;;4.99;100.00;100980.38;6351021;22;45664;-82
2022/12/03 04:38:55;;;;;;;;;34.67;31.67;;;;;5.06;100.00;100978.88;6321524;22;47332;-81
2022/12/03 04:41:24;;;;;;;;;42.00;38.33;;;;;5.05;100.00;100981.44;6321910;22;45231;-81
2022/12/03 04:46:34;;;;;;;;;46.00;40.33;;;;;4.96;100.00;100988.16;6349226;22;45243;-81
2022/12/03 04:49:02;;;;;;;;;48.00;37.67;;;;;4.95;100.00;100977.56;6320509;22;46086;-81
2022/12/03 04:51:28;;;;;;;;;41.33;33.00;;;;;4.91;100.00;100968.63;6319790;22;44779;-81
2022/12/03 04:57:15;;;;;;;;;43.33;38.33;;;;;4.85;100.00;100973.66;6349202;22;45222;-83
2022/12/03 04:59:41;;;;;;;;;43.00;38.00;;;;;4.90;100.00;100977.38;6321657;22;47121;-82
2022/12/03 05:02:10;;;;;;;;;52.67;39.00;;;;;4.93;100.00;100982.78;6319808;22;45384;-81
2022/12/03 05:04:35;;;;;;;;;43.67;39.00;;;;;4.96;100.00;100993.44;6320862;22;45315;-82
2022/12/03 05:10:23;;;;;;;;;42.67;38.00;;;;;4.82;100.00;100976.16;6350220;22;45388;-82
2022/12/03 05:12:48;;;;;;;;;40.50;35.50;;;;;4.87;100.00;100971.06;6321249;22;45447;-82
2022/12/03 05:15:17;;;;;;;;;52.67;39.00;;;;;4.86;100.00;100978.06;6319890;22;45377;-81
2022/12/03 05:17:42;;;;;;;;;51.00;40.33;;;;;4.85;100.00;100971.03;6313559;22;45366;-81
2022/12/03 05:23:04;;;;;;;;;41.33;37.00;;;;;4.83;100.00;100967.44;6316056;22;45340;-82
2022/12/03 05:26:09;;;;;;;;;50.33;41.33;;;;;4.86;100.00;100978.06;6315478;22;45370;-82
2022/12/03 05:28:35;;;;;;;;;54.00;40.00;;;;;4.85;100.00;100976.28;6317125;22;45505;-82
2022/12/03 05:31:01;;;;;;;;;45.00;37.33;;;;;4.89;100.00;100985.19;6316075;22;47711;-81
2022/12/03 05:33:26;;;;;;;;;40.33;34.67;;;;;4.89;100.00;100980.84;6318969;22;45443;-81
2022/12/03 05:35:54;;;;;;;;;32.67;31.33;;;;;4.90;100.00;100979.09;6319150;22;45250;-83
2022/12/03 05:38:21;;;;;;;;;37.33;35.00;;;;;4.89;100.00;100974.66;6318327;22;45357;-81
2022/12/03 05:40:46;;;;;;;;;35.67;34.00;;;;;4.88;100.00;100965.88;6315451;22;45267;-81
2022/12/03 05:43:12;;;;;;;;;40.67;35.00;;;;;4.93;100.00;100977.50;6318609;22;45146;-81
2022/12/03 05:45:42;;;;;;;;;39.67;36.67;;;;;4.92;100.00;100980.97;6317924;22;44634;-82
2022/12/03 05:48:12;;;;;;;;;41.00;38.67;;;;;4.93;100.00;100969.59;6318618;22;45470;-82
2022/12/03 05:51:09;;;;;;;;;42.00;37.67;;;;;4.96;100.00;100967.06;6316571;22;47464;-82
2022/12/03 05:53:34;;;;;;;;;40.00;36.00;;;;;4.91;100.00;100963.38;6315272;22;45352;-81
2022/12/03 05:56:00;;;;;;;;;33.67;29.33;;;;;4.94;100.00;100966.09;6318366;22;45189;-82
2022/12/03 05:58:29;;;;;;;;;38.67;30.67;;;;;4.96;100.00;100967.06;6315133;22;45287;-82
2022/12/03 06:00:54;;;;;;;;;38.00;36.00;;;;;4.92;100.00;100969.53;6318986;22;45036;-81
2022/12/03 06:03:20;;;;;;;;;40.33;37.67;;;;;4.87;100.00;100964.09;6316362;22;45415;-82
2022/12/03 06:05:46;;;;;;;;;38.33;33.00;;;;;4.89;100.00;100979.94;6319816;22;45379;-81
2022/12/03 06:08:15;;;;;;;;;45.00;38.33;;;;;4.79;100.00;100960.22;6319804;22;45277;-82
2022/12/03 06:10:41;;;;;;;;;32.00;27.33;;;;;4.88;100.00;100978.16;6317379;22;45646;-82
2022/12/03 06:13:06;;;;;;;;;36.67;32.33;;;;;4.91;100.00;100968.63;6317032;22;45519;-82
2022/12/03 06:15:32;;;;;;;;;38.33;32.00;;;;;4.91;100.00;100971.28;6317132;22;45288;-83
2022/12/03 06:18:00;;;;;;;;;43.67;38.67;;;;;4.91;100.00;100958.09;6317440;22;45372;-81
2022/12/03 06:20:27;;;;;;;;;43.00;37.00;;;;;4.77;100.00;100951.38;6318201;22;45301;-81
2022/12/03 06:22:56;;;;;;;;;52.00;38.67;;;;;4.83;100.00;100962.16;6317736;22;45298;-82
2022/12/03 06:25:21;;;;;;;;;35.33;32.00;;;;;4.89;100.00;100962.41;6320366;22;45342;-81
2022/12/03 06:27:47;;;;;;;;;35.67;31.67;;;;;4.89;100.00;100962.41;6322292;22;45296;-82
2022/12/03 06:30:13;;;;;;;;;43.00;39.00;;;;;4.86;100.00;100949.09;6316935;22;47600;-82
2022/12/03 06:32:41;;;;;;;;;31.00;31.00;;;;;4.91;100.00;100951.91;6319900;22;45449;-82
2022/12/03 06:35:07;;;;;;;;;38.67;29.67;;;;;4.93;100.00;100952.91;6318780;22;44719;-82
2022/12/03 06:37:33;;;;;;;;;32.67;31.00;;;;;4.98;100.00;100962.75;6318944;22;45379;-82
2022/12/03 06:39:58;;;;;;;;;41.00;34.67;;;;;4.98;100.00;100965.41;6319504;22;47077;-82
2022/12/03 06:42:24;;;;;;;;;38.33;31.33;;;;;4.99;100.00;100966.31;6320335;22;45505;-82
2022/12/03 06:45:40;;;;;;;;;48.67;37.33;;;;;5.00;100.00;100963.72;6319543;22;44827;-81
2022/12/03 06:48:06;;;;;;;;;35.00;29.00;;;;;4.85;100.00;100955.22;6320868;22;45180;-83
2022/12/03 06:50:31;;;;;;;;;38.67;36.00;;;;;4.80;100.00;100969.91;6320139;22;46620;-82
2022/12/03 06:52:57;;;;;;;;;33.00;27.33;;;;;4.71;100.00;100951.13;6319510;22;45392;-82
2022/12/03 06:55:23;;;;;;;;;37.33;33.33;;;;;4.77;100.00;100962.81;6319328;22;45468;-81
2022/12/03 07:01:13;;;;;;;;;39.67;33.00;;;;;4.88;100.00;100962.34;6319847;22;45250;-81
2022/12/03 07:03:39;;;;;;;;;36.33;34.67;;;;;4.92;100.00;100959.88;6317859;22;45499;-81
2022/12/03 07:06:05;;;;;;;;;37.33;34.67;;;;;4.87;100.00;100966.72;6320058;22;45385;-82
2022/12/03 07:08:30;;;;;;;;;40.00;34.67;;;;;4.90;100.00;100982.63;6318699;22;45483;-83
2022/12/03 07:14:17;;;;;;;;;34.00;31.33;;;;;4.87;100.00;100969.34;6320480;22;45324;-83
2022/12/03 07:16:43;;;;;;;;;36.00;33.33;;;;;4.87;100.00;100966.72;6330660;22;45282;-82
2022/12/03 07:19:09;;;;;;;;;36.67;33.33;;;;;4.87;100.00;100972.00;6321961;22;44794;-83
2022/12/03 07:21:35;;;;;;;;;36.67;34.00;;;;;4.87;100.00;100966.72;6269446;22;46585;-82
2022/12/03 07:24:02;;;;;;;;;32.67;31.67;;;;;4.94;100.00;100981.91;6322070;22;45337;-81
2022/12/03 07:26:30;;;;;;;;;40.00;35.33;;;;;4.96;100.00;100982.88;6322797;22;45293;-82
2022/12/03 07:28:56;;;;;;;;;38.00;34.67;;;;;4.99;100.00;100972.47;6322185;22;45433;-82
2022/12/03 07:31:22;;;;;;;;;36.67;31.00;;;;;4.96;100.00;100974.97;6350237;22;45485;-83
2022/12/03 07:33:50;;;;;;;;;34.00;28.67;;;;;4.98;100.00;100970.66;6349751;22;45350;-81
2022/12/03 07:36:16;;;;;;;;;29.33;28.00;;;;;4.91;100.00;100972.97;6321670;22;45368;-83
2022/12/03 07:38:41;;;;;;;;;37.00;32.00;;;;;4.94;100.00;100965.22;6350325;22;45282;-81
2022/12/03 07:41:07;;;;;;;;;39.67;36.00;;;;;4.88;100.00;100981.69;6322174;22;47547;-82
2022/12/03 07:43:35;;;;;;;;;37.33;36.00;;;;;4.86;100.00;100985.09;6321203;22;45285;-83
2022/12/03 07:46:07;;;;;;;;;42.67;36.33;;;;;4.82;100.00;100968.25;6350353;22;45389;-81
2022/12/03 07:48:33;;;;;;;;;34.67;32.00;;;;;4.87;100.00;100982.53;6322823;22;45202;-81
2022/12/03 07:50:58;;;;;;;;;35.33;29.00;;;;;4.94;100.00;100986.31;6350364;22;45327;-81
2022/12/03 07:53:24;;;;;;;;;39.00;34.00;;;;;4.92;100.00;100985.34;6324406;22;45392;-82
2022/12/03 07:55:49;;;;;;;;;36.33;30.67;;;;;4.86;100.00;100975.44;6353520;22;45274;-82
2022/12/03 07:58:14;;;;;;;;;32.00;27.33;;;;;4.85;100.00;100968.38;6323579;22;45529;-82
2022/12/03 08:00:40;;;;;;;;;38.67;33.00;;;;;4.93;100.00;100988.03;6321810;22;47710;-84
2022/12/03 08:03:06;;;;;;;;;37.67;33.33;;;;;4.96;100.00;100988.16;6349738;22;45573;-82
2022/12/03 08:05:31;;;;;;;;;37.00;30.00;;;;;5.00;100.00;100987.44;6320158;22;45467;-82
2022/12/03 08:07:57;;;;;;;;;39.33;31.33;;;;;5.06;100.00;100981.53;6320411;22;44826;-81
2022/12/03 08:10:25;;;;;;;;;40.00;33.00;;;;;5.06;100.00;100980.63;6320984;22;48214;-82
2022/12/03 08:12:52;;;;;;;;;34.67;31.00;;;;;5.07;100.00;100983.34;6320221;22;45594;-82
2022/12/03 08:15:20;;;;;;;;;29.67;25.67;;;;;5.11;100.00;100979.06;6350770;22;45280;-83
2022/12/03 08:17:55;;;;;;;;;42.33;37.67;;;;;5.11;100.00;100982.63;6315731;22;45346;-83
2022/12/03 08:20:30;;;;;;;;;32.00;26.67;;;;;5.00;100.00;100970.72;6316082;22;47203;-81
2022/12/03 08:22:56;;;;;;;;;39.00;34.00;;;;;4.99;100.00;100987.41;6316385;22;45304;-82
2022/12/03 08:25:27;;;;;;;;;38.67;31.00;;;;;4.99;100.00;100979.50;6314450;22;45396;-83
2022/12/03 08:27:59;;;;;;;;;45.33;31.00;;;;;5.01;100.00;100976.06;6315528;22;45238;-81
2022/12/03 08:30:25;;;;;;;;;38.00;30.00;;;;;5.10;100.00;100978.16;6313701;22;46558;-82
2022/12/03 08:32:51;;;;;;;;;28.67;22.00;;;;;5.18;100.00;100983.75;6314059;22;45344;-82
2022/12/03 08:35:27;;;;;;;;;35.67;27.67;;;;;5.13;100.00;100977.38;6316569;22;45331;-82
2022/12/03 08:38:04;;;;;;;;;33.33;28.33;;;;;5.07;100.00;100982.41;6317452;22;45155;-83
2022/12/03 08:40:35;;;;;;;;;35.00;31.00;;;;;5.00;100.00;100974.25;6312693;22;45633;-82
2022/12/03 08:43:00;;;;;;;;;29.33;27.00;;;;;5.01;100.00;100981.34;6313720;22;45926;-82
2022/12/03 08:45:30;;;;;;;;;31.67;31.67;;;;;5.05;100.00;100971.84;6313994;22;45247;-82
2022/12/03 08:48:04;;;;;;;;;32.00;27.33;;;;;5.02;100.00;100963.78;6313931;22;45669;-83
2022/12/03 08:50:35;;;;;;;;;29.00;26.00;;;;;5.04;100.00;100975.28;6312262;22;46792;-81
2022/12/03 08:53:12;;;;;;;;;23.33;19.67;;;;;5.06;100.00;100970.09;6312699;22;45671;-82
2022/12/03 08:55:45;;;;;;;;;24.67;22.67;;;;;5.13;100.00;100964.19;6314616;22;45750;-81
2022/12/03 08:58:33;;;;;;;;;29.67;25.67;;;;;5.21;100.00;100968.03;6314805;22;45368;-82
2022/12/03 09:01:23;;;;;;;;;25.00;23.67;;;;;5.07;100.00;100958.69;6314808;22;46088;-81
2022/12/03 09:03:53;;;;;;;;;29.33;24.33;;;;;5.03;100.00;100972.59;6312215;22;45407;-83
2022/12/03 09:06:20;;;;;;;;;27.33;25.00;;;;;4.93;100.00;100980.13;6314175;22;45250;-82
2022/12/03 09:08:46;;;;;;;;;26.67;24.33;;;;;4.87;100.00;100972.00;6312469;22;45432;-82
2022/12/03 09:11:12;;;;;;;;;29.67;25.67;;;;;4.87;100.00;100966.72;6313022;22;46827;-82
2022/12/03 09:13:37;;;;;;;;;25.33;22.33;;;;;4.89;100.00;100965.03;6316284;22;45257;-82
2022/12/03 09:16:03;;;;;;;;;32.33;29.33;;;;;4.95;100.00;100956.50;6313364;22;45475;-82
2022/12/03 09:18:28;;;;;;;;;23.67;21.00;;;;;5.10;100.00;100972.91;6349344;22;45441;-82
2022/12/03 09:20:55;;;;;;;;;30.67;27.67;;;;;5.12;100.00;100968.59;6320765;22;47458;-81
2022/12/03 09:23:20;;;;;;;;;29.67;29.33;;;;;5.10;100.00;100974.66;6347420;22;45305;-82
2022/12/03 09:25:46;;;;;;;;;31.67;29.67;;;;;4.98;100.00;100965.41;6346991;22;45360;-83
2022/12/03 09:31:33;;;;;;;;;25.67;24.67;;;;;4.89;100.00;100978.22;6345382;22;45652;-82
2022/12/03 09:34:03;;;;;;;;;25.67;22.67;;;;;4.86;100.00;100967.53;6316611;22;45333;-80
2022/12/03 09:36:29;;;;;;;;;25.33;25.33;;;;;4.85;100.00;100959.56;6347084;22;44751;-81
2022/12/03 09:38:55;;;;;;;;;25.67;25.67;;;;;4.93;100.00;100977.50;6345141;22;45526;-82
2022/12/03 09:41:21;;;;;;;;;25.67;25.00;;;;;4.97;100.00;100976.78;6319391;22;46975;-80
2022/12/03 09:44:09;;;;;;;;;23.67;23.67;;;;;5.03;100.00;100985.75;6250549;22;45501;-82
2022/12/03 09:46:36;;;;;;;;;38.67;27.33;;;;;5.13;100.00;100974.75;6252492;22;45440;-82
2022/12/03 09:49:06;;;;;;;;;25.00;22.00;;;;;5.16;100.00;100982.78;6252210;22;45279;-81
2022/12/03 09:51:34;;;;;;;;;23.33;20.33;;;;;5.12;100.00;100983.50;6226866;22;46677;-81
2022/12/03 09:54:01;;;;;;;;;19.00;19.00;;;;;5.01;100.00;100965.53;6253612;22;45402;-81
2022/12/03 09:56:27;;;;;;;;;27.33;25.33;;;;;5.06;100.00;100970.09;6250699;22;45293;-81
2022/12/03 09:58:59;;;;;;;;;26.33;24.00;;;;;5.07;100.00;100977.16;6251822;22;45207;-81
2022/12/03 10:01:25;;;;;;;;;23.67;22.33;;;;;5.13;100.00;100974.75;6249875;22;47827;-81
2022/12/03 10:03:51;;;;;;;;;38.00;28.00;;;;;5.06;100.00;100956.91;6250747;22;45319;-82
2022/12/03 10:06:22;;;;;;;;;24.33;20.33;;;;;5.21;100.00;100968.03;6228683;22;45387;-82
2022/12/03 10:08:50;;;;;;;;;22.00;19.00;;;;;5.20;100.00;100956.59;6227080;22;45358;-83
2022/12/03 10:11:18;;;;;;;;;25.00;25.00;;;;;5.29;100.00;100953.44;6253059;22;45521;-82
2022/12/03 10:13:44;;;;;;;;;25.33;22.67;;;;;5.28;100.00;100938.44;6226061;22;45417;-82
2022/12/03 10:16:19;;;;;;;;;24.67;22.67;;;;;5.38;100.00;100942.34;6251055;22;44810;-82
2022/12/03 10:18:51;;;;;;;;;31.33;22.67;;;;;5.31;100.00;100932.38;6224750;22;45411;-82
2022/12/03 10:22:12;;;;;;;;;31.33;26.00;;;;;5.37;100.00;100949.38;6281689;22;45203;-82
2022/12/03 10:24:38;;;;;;;;;22.00;17.00;;;;;5.39;100.00;100939.78;6314522;22;45443;-82
2022/12/03 10:27:23;;;;;;;;;25.00;22.33;;;;;5.43;100.00;100931.97;6315405;22;45404;-83
2022/12/03 10:29:59;;;;;;;;;30.67;26.00;;;;;5.48;100.00;100935.69;6316699;22;45436;-82
2022/12/03 10:32:37;;;;;;;;;19.33;19.33;;;;;5.49;100.00;100925.16;6318606;22;45400;-83
2022/12/03 10:35:10;;;;;;;;;22.00;18.67;;;;;5.55;100.00;100927.13;6319876;22;45706;-83
2022/12/03 10:37:36;;;;;;;;;21.67;18.67;;;;;5.52;100.00;100924.41;6316804;22;45443;-82
2022/12/03 10:40:08;;;;;;;;;34.67;26.67;;;;;5.57;100.00;100930.72;6318248;22;45221;-82
2022/12/03 10:42:39;;;;;;;;;31.33;23.00;;;;;5.57;100.00;100922.81;6319331;22;45384;-82
2022/12/03 10:45:19;;;;;;;;;25.67;23.00;;;;;5.60;100.00;100925.59;6317878;22;45363;-81
2022/12/03 10:48:11;;;;;;;;;27.67;24.00;;;;;5.56;100.00;100918.41;6317008;22;45418;-81
2022/12/03 10:50:44;;;;;;;;;20.67;19.33;;;;;5.57;100.00;100930.72;6294802;22;45572;-82
2022/12/03 10:53:11;;;;;;;;;26.00;24.33;;;;;5.53;100.00;100905.09;6315996;22;47067;-83
2022/12/03 10:55:42;;;;;;;;;18.00;16.33;;;;;5.52;100.00;100912.09;6315607;22;45641;-80
2022/12/03 10:58:29;;;;;;;;;26.33;22.67;;;;;5.52;100.00;100913.84;6317956;22;44680;-82
2022/12/03 11:00:56;;;;;;;;;26.33;23.67;;;;;5.48;100.00;100914.59;6317533;22;45327;-82
2022/12/03 11:03:25;;;;;;;;;21.67;19.67;;;;;5.36;100.00;100900.09;6318086;22;46975;-81
2022/12/03 11:05:52;;;;;;;;;15.67;14.33;;;;;5.38;100.00;100908.94;6316859;22;45379;-81
2022/12/03 11:08:21;;;;;;;;;30.67;27.00;;;;;5.39;100.00;100934.50;6314827;22;45383;-81
2022/12/03 11:11:06;;;;;;;;;21.00;18.00;;;;;5.33;100.00;100899.97;6317678;22;45365;-83
2022/12/03 11:13:31;;;;;;;;;26.00;24.33;;;;;5.37;100.00;100901.91;6315557;22;46908;-81
2022/12/03 11:16:01;;;;;;;;;26.33;21.67;;;;;5.35;100.00;100894.75;6317189;22;45378;-82
2022/12/03 11:18:36;;;;;;;;;30.00;25.67;;;;;5.36;100.00;100909.75;6313664;22;45318;-82
2022/12/03 11:21:07;;;;;;;;;27.33;24.67;;;;;5.33;100.00;100892.06;6317093;22;45319;-81
2022/12/03 11:23:45;;;;;;;;;18.67;17.00;;;;;5.34;100.00;100901.75;6317312;22;45592;-82
2022/12/03 11:26:16;;;;;;;;;22.67;19.33;;;;;5.30;100.00;100891.06;6314861;22;45317;-82
2022/12/03 11:28:44;;;;;;;;;29.00;25.33;;;;;5.34;100.00;100896.50;6315085;22;44772;-82
2022/12/03 11:34:32;;;;;;;;;27.67;24.33;;;;;5.45;100.00;100888.97;6316477;22;45387;-82
2022/12/03 11:37:10;;;;;;;;;19.67;17.67;;;;;5.47;100.00;100889.03;6315300;22;45486;-83
2022/12/03 11:39:48;;;;;;;;;25.33;18.33;;;;;5.53;100.00;100890.16;6317256;22;45394;-83
2022/12/03 11:42:25;;;;;;;;;22.00;19.67;;;;;5.56;100.00;100892.03;6315661;22;45574;-82
2022/12/03 11:45:03;;;;;;;;;25.50;19.00;;;;;5.59;100.00;100889.47;6314085;22;45337;-82
2022/12/03 11:47:57;;;;;;;;;23.67;18.67;;;;;5.66;100.00;100885.34;6316352;22;45352;-82
2022/12/03 11:50:33;;;;;;;;;23.00;19.33;;;;;5.76;100.00;100879.56;6301289;22;45467;-83
2022/12/03 11:53:15;;;;;;;;;29.67;22.33;;;;;5.88;100.00;100879.06;6319096;22;45320;-81
2022/12/03 11:55:47;;;;;;;;;29.00;26.67;;;;;5.92;100.00;100870.44;6318883;22;45265;-82
2022/12/03 11:58:15;;;;;;;;;26.33;22.00;;;;;5.87;100.00;100872.00;6321986;22;44741;-82
2022/12/03 12:00:50;;;;;;;;;25.33;22.67;;;;;5.86;100.00;100870.19;6319790;22;44703;-82
2022/12/03 12:03:28;;;;;;;;;26.67;24.33;;;;;5.68;100.00;100866.06;6316971;22;45612;-83
2022/12/03 12:06:13;;;;;;;;;27.67;24.67;;;;;5.61;100.00;100869.31;6317739;22;45473;-82
2022/12/03 12:08:51;;;;;;;;;28.33;21.67;;;;;5.64;100.00;100864.16;6317672;22;44805;-84
2022/12/03 12:11:31;;;;;;;;;35.33;28.33;;;;;5.61;100.00;100853.50;6318461;22;45176;-82
2022/12/03 12:14:07;;;;;;;;;29.33;22.67;;;;;5.71;100.00;100863.53;6317202;22;45439;-82